createdAt,value
2023-02-24T00:00:33.877Z,56.80
2023-02-24T00:03:06.836Z,56.80
2023-02-24T00:05:36.813Z,56.80
2023-02-24T00:08:04.858Z,56.80
2023-02-24T00:10:34.331Z,56.70
2023-02-24T00:13:03.090Z,56.70
2023-02-24T00:15:32.570Z,56.60
2023-02-24T00:18:06.951Z,56.60
2023-02-24T00:20:35.538Z,56.60
2023-02-24T00:23:04.189Z,56.50
2023-02-24T00:25:32.040Z,56.60
2023-02-24T00:28:01.559Z,56.60
2023-02-24T00:30:31.575Z,56.60
2023-02-24T00:33:02.394Z,56.60
2023-02-24T00:35:32.040Z,56.70
2023-02-24T00:38:00.836Z,56.60
2023-02-24T00:40:30.655Z,56.50
2023-02-24T00:43:00.779Z,56.50
2023-02-24T00:45:30.706Z,56.50
2023-02-24T00:48:00.029Z,56.50
2023-02-24T00:50:28.048Z,57.00
2023-02-24T00:52:56.336Z,56.50
2023-02-24T00:55:27.668Z,56.50
2023-02-24T00:57:56.325Z,56.50
2023-02-24T01:00:26.104Z,56.50
2023-02-24T01:02:54.487Z,56.50
2023-02-24T01:05:23.708Z,56.50
2023-02-24T01:07:52.004Z,56.50
2023-02-24T01:10:22.365Z,56.60
2023-02-24T01:12:49.799Z,56.60
2023-02-24T01:15:20.712Z,56.70
2023-02-24T01:17:48.712Z,56.70
2023-02-24T01:20:18.257Z,56.70
2023-02-24T01:22:53.887Z,56.70
2023-02-24T01:25:22.682Z,56.80
2023-02-24T01:27:50.613Z,56.70
2023-02-24T01:30:18.998Z,56.70
2023-02-24T01:32:48.306Z,56.80
2023-02-24T01:35:16.814Z,56.80
2023-02-24T01:37:45.359Z,56.70
2023-02-24T01:40:21.568Z,56.80
2023-02-24T01:42:50.710Z,56.80
2023-02-24T01:45:22.820Z,56.80
2023-02-24T01:47:52.591Z,56.80
2023-02-24T01:50:23.076Z,56.80
2023-02-24T01:52:56.552Z,56.70
2023-02-24T01:55:32.074Z,56.80
2023-02-24T01:58:05.040Z,56.80
2023-02-24T02:00:45.137Z,56.80
2023-02-24T02:03:19.631Z,56.80
2023-02-24T02:05:49.385Z,56.90
2023-02-24T02:08:19.326Z,56.80
2023-02-24T02:10:49.461Z,56.80
2023-02-24T02:13:21.536Z,56.90
2023-02-24T02:16:29.763Z,56.90
2023-02-24T02:19:09.473Z,57.00
2023-02-24T02:22:08.191Z,56.90
2023-02-24T02:24:45.805Z,57.00
2023-02-24T02:27:32.059Z,56.90
2023-02-24T02:30:44.025Z,56.90
2023-02-24T02:33:53.308Z,56.90
2023-02-24T02:36:27.791Z,57.00
2023-02-24T02:39:06.146Z,56.90
2023-02-24T02:41:49.253Z,57.00
2023-02-24T02:44:23.013Z,57.00
2023-02-24T02:46:59.208Z,57.00
2023-02-24T02:49:32.180Z,57.00
2023-02-24T02:52:13.745Z,57.00
2023-02-24T02:54:49.597Z,57.00
2023-02-24T02:57:21.555Z,57.00
2023-02-24T02:59:56.882Z,56.90
2023-02-24T03:02:38.349Z,56.90
2023-02-24T03:05:10.011Z,57.00
2023-02-24T03:07:45.317Z,56.90
2023-02-24T03:10:21.063Z,57.00
2023-02-24T03:12:53.204Z,57.00
2023-02-24T03:15:24.298Z,56.90
2023-02-24T03:17:56.924Z,56.90
2023-02-24T03:20:29.345Z,56.90
2023-02-24T03:23:04.163Z,56.90
2023-02-24T03:25:44.423Z,56.90
2023-02-24T03:28:20.265Z,56.90
2023-02-24T03:30:55.582Z,56.90
2023-02-24T03:33:29.913Z,56.90
2023-02-24T03:36:01.634Z,57.00
2023-02-24T03:38:38.343Z,57.00
2023-02-24T03:41:11.127Z,57.10
2023-02-24T03:43:45.157Z,57.10
2023-02-24T03:46:15.079Z,57.00
2023-02-24T03:48:47.975Z,57.10
2023-02-24T03:51:19.136Z,57.00
2023-02-24T03:54:02.912Z,57.00
2023-02-24T03:56:46.735Z,56.90
2023-02-24T03:59:31.169Z,56.90
2023-02-24T04:02:06.008Z,56.90
2023-02-24T04:04:48.856Z,56.80
2023-02-24T04:07:37.582Z,57.00
2023-02-24T04:10:15.409Z,56.90
2023-02-24T04:12:53.243Z,56.80
2023-02-24T04:15:29.021Z,56.80
2023-02-24T04:17:59.541Z,56.80
2023-02-24T04:20:35.084Z,56.80
2023-02-24T04:23:09.156Z,56.80
2023-02-24T04:25:41.322Z,56.80
2023-02-24T04:28:10.505Z,56.80
2023-02-24T04:30:44.152Z,56.90
2023-02-24T04:33:13.336Z,56.90
2023-02-24T04:35:41.899Z,56.80
2023-02-24T04:38:09.958Z,56.70
2023-02-24T04:40:41.004Z,56.70
2023-02-24T04:43:09.233Z,56.70
2023-02-24T04:45:40.077Z,56.70
2023-02-24T04:48:12.689Z,56.60
2023-02-24T04:50:43.028Z,56.50
2023-02-24T04:53:13.724Z,56.50
2023-02-24T04:55:48.770Z,56.40
2023-02-24T04:58:20.052Z,56.40
2023-02-24T05:00:49.292Z,56.40
2023-02-24T05:03:18.071Z,56.40
2023-02-24T05:05:52.418Z,56.40
2023-02-24T05:08:21.149Z,56.30
2023-02-24T05:10:50.748Z,56.30
2023-02-24T05:13:21.390Z,56.30
2023-02-24T05:15:50.286Z,56.30
2023-02-24T05:18:20.302Z,56.40
2023-02-24T05:21:07.825Z,56.40
2023-02-24T05:23:39.128Z,56.40
2023-02-24T05:26:10.353Z,56.40
2023-02-24T05:28:40.578Z,56.30
2023-02-24T05:31:10.734Z,56.30
2023-02-24T05:33:39.689Z,56.30
2023-02-24T05:36:10.115Z,56.30
2023-02-24T05:38:38.983Z,56.20
2023-02-24T05:41:15.164Z,56.20
2023-02-24T05:43:47.993Z,56.20
2023-02-24T05:46:16.657Z,56.20
2023-02-24T05:48:44.723Z,56.10
2023-02-24T05:51:13.505Z,56.00
2023-02-24T05:53:42.464Z,56.00
2023-02-24T05:56:12.288Z,55.90
2023-02-24T05:58:40.473Z,55.90
2023-02-24T06:01:16.212Z,55.80
2023-02-24T06:03:48.027Z,55.70
2023-02-24T06:06:16.579Z,55.70
2023-02-24T06:08:50.115Z,55.70
2023-02-24T06:11:21.424Z,55.70
2023-02-24T06:13:49.909Z,55.60
2023-02-24T06:16:19.144Z,55.60
2023-02-24T06:18:50.701Z,55.50
2023-02-24T06:21:19.133Z,55.40
2023-02-24T06:23:47.212Z,55.50
2023-02-24T06:26:19.244Z,55.50
2023-02-24T06:28:49.953Z,55.50
2023-02-24T06:31:18.399Z,55.50
2023-02-24T06:33:46.378Z,55.50
2023-02-24T06:36:15.482Z,55.60
2023-02-24T06:38:43.497Z,55.90
2023-02-24T06:41:11.866Z,55.90
2023-02-24T06:43:40.626Z,55.80
2023-02-24T06:46:11.365Z,55.70
2023-02-24T06:48:39.601Z,55.60
2023-02-24T06:51:10.605Z,55.60
2023-02-24T06:53:43.088Z,55.40
2023-02-24T06:56:14.761Z,55.40
2023-02-24T06:58:44.911Z,55.20
2023-02-24T07:01:15.913Z,54.90
2023-02-24T07:04:00.229Z,55.00
2023-02-24T07:06:29.579Z,54.90
2023-02-24T07:08:59.578Z,54.90
2023-02-24T07:11:29.523Z,54.90
2023-02-24T07:13:57.592Z,55.10
2023-02-24T07:16:28.876Z,55.20
2023-02-24T07:18:57.890Z,55.10
2023-02-24T07:21:30.261Z,55.00
2023-02-24T07:23:59.456Z,55.10
2023-02-24T07:26:30.470Z,55.20
2023-02-24T07:28:58.722Z,55.20
2023-02-24T07:31:28.269Z,55.10
2023-02-24T07:33:57.544Z,55.00
2023-02-24T07:36:30.457Z,55.10
2023-02-24T07:39:01.484Z,55.10
2023-02-24T07:41:31.405Z,55.10
2023-02-24T07:44:03.132Z,55.10
2023-02-24T07:46:33.536Z,55.10
2023-02-24T07:49:03.201Z,55.00
2023-02-24T07:51:31.807Z,55.00
2023-02-24T07:54:01.486Z,54.90
2023-02-24T07:56:31.290Z,54.80
2023-02-24T07:59:01.074Z,54.70
2023-02-24T08:01:30.542Z,54.70
2023-02-24T08:04:02.130Z,54.50
2023-02-24T08:06:37.879Z,54.50
2023-02-24T08:09:17.748Z,54.40
2023-02-24T08:11:47.192Z,54.30
2023-02-24T08:14:15.720Z,54.30
2023-02-24T08:16:45.987Z,54.30
2023-02-24T08:19:20.897Z,54.20
2023-02-24T08:21:50.538Z,54.00
2023-02-24T08:24:20.067Z,54.40
2023-02-24T08:27:04.244Z,54.60
2023-02-24T08:29:40.433Z,55.20
2023-02-24T08:32:10.178Z,54.70
2023-02-24T08:34:40.223Z,53.70
2023-02-24T08:37:08.061Z,53.50
2023-02-24T08:39:36.575Z,53.00
2023-02-24T08:42:04.818Z,53.20
2023-02-24T08:44:34.977Z,52.80
2023-02-24T08:47:05.115Z,52.90
2023-02-24T08:49:33.549Z,53.00
2023-02-24T08:52:05.454Z,52.90
2023-02-24T08:54:34.094Z,52.90
2023-02-24T08:57:08.323Z,52.90
2023-02-24T08:59:50.107Z,52.80
2023-02-24T09:02:24.171Z,52.80
2023-02-24T09:04:54.449Z,52.80
2023-02-24T09:07:26.240Z,52.60
2023-02-24T09:09:56.647Z,52.40
2023-02-24T09:12:26.435Z,52.40
2023-02-24T09:14:57.745Z,52.40
2023-02-24T09:17:51.499Z,52.40
2023-02-24T09:20:38.766Z,52.40
2023-02-24T09:23:08.690Z,52.50
2023-02-24T09:25:43.882Z,52.10
2023-02-24T09:28:16.997Z,52.20
2023-02-24T09:30:54.323Z,52.20
2023-02-24T09:33:25.671Z,52.20
2023-02-24T09:36:03.486Z,52.20
2023-02-24T09:39:09.761Z,52.10
2023-02-24T09:41:57.117Z,52.00
2023-02-24T09:44:34.979Z,52.00
2023-02-24T09:47:11.133Z,51.80
2023-02-24T09:49:56.315Z,51.80
2023-02-24T09:52:39.953Z,51.40
2023-02-24T09:55:25.817Z,51.60
2023-02-24T09:58:26.958Z,51.70
2023-02-24T10:01:21.111Z,51.90
2023-02-24T10:04:15.019Z,51.90
2023-02-24T10:06:51.126Z,52.00
2023-02-24T10:09:26.960Z,52.00
2023-02-24T10:12:04.214Z,51.90
2023-02-24T10:14:43.881Z,51.90
2023-02-24T10:17:30.676Z,51.90
2023-02-24T10:20:02.772Z,51.90
2023-02-24T10:22:40.496Z,52.00
2023-02-24T10:25:23.703Z,51.80
2023-02-24T10:28:01.041Z,51.80
2023-02-24T10:30:42.308Z,51.90
2023-02-24T10:33:20.697Z,52.00
2023-02-24T10:35:50.242Z,51.90
2023-02-24T10:38:18.469Z,52.00
2023-02-24T10:40:56.561Z,52.30
2023-02-24T10:43:31.476Z,53.20
2023-02-24T10:46:07.003Z,52.40
2023-02-24T10:48:41.710Z,52.40
2023-02-24T10:51:19.634Z,52.40
2023-02-24T10:54:09.560Z,52.30
2023-02-24T10:56:44.356Z,52.20
2023-02-24T10:59:48.601Z,52.10
2023-02-24T11:02:29.927Z,52.10
2023-02-24T11:05:24.956Z,52.00
2023-02-24T11:08:08.094Z,51.90
2023-02-24T11:10:53.112Z,51.80
2023-02-24T11:13:39.340Z,51.80
2023-02-24T11:16:29.405Z,52.10
2023-02-24T11:18:58.958Z,52.40
2023-02-24T11:21:28.042Z,53.00
2023-02-24T11:24:02.434Z,53.10
2023-02-24T11:26:36.421Z,52.80
2023-02-24T11:29:24.847Z,52.90
2023-02-24T11:32:10.693Z,52.90
2023-02-24T11:34:49.754Z,52.70
2023-02-24T11:37:34.377Z,52.60
2023-02-24T11:40:07.543Z,51.90
2023-02-24T11:42:41.992Z,52.00
2023-02-24T11:45:22.955Z,51.80
2023-02-24T11:47:56.229Z,51.70
2023-02-24T11:50:43.821Z,51.60
2023-02-24T11:53:25.875Z,51.50
2023-02-24T11:56:01.555Z,51.40
2023-02-24T11:58:39.707Z,51.40
2023-02-24T12:01:15.816Z,51.50
2023-02-24T12:03:54.217Z,51.60
2023-02-24T12:06:28.907Z,51.60
2023-02-24T12:09:01.790Z,51.50
2023-02-24T12:11:39.836Z,51.10
2023-02-24T12:14:23.422Z,51.20
2023-02-24T12:16:59.749Z,51.10
2023-02-24T12:19:37.139Z,51.30
2023-02-24T12:22:12.643Z,51.10
2023-02-24T12:24:47.472Z,51.00
2023-02-24T12:27:26.351Z,51.10
2023-02-24T12:30:34.257Z,50.80
2023-02-24T12:33:17.472Z,50.70
2023-02-24T12:35:59.934Z,50.90
2023-02-24T12:38:41.174Z,50.90
2023-02-24T12:41:20.659Z,50.80
2023-02-24T12:43:55.363Z,50.80
2023-02-24T12:46:27.911Z,50.60
2023-02-24T12:49:31.211Z,50.60
2023-02-24T12:52:12.985Z,50.50
2023-02-24T12:54:47.655Z,50.80
2023-02-24T12:57:25.003Z,50.90
2023-02-24T12:59:55.267Z,50.90
2023-02-24T13:02:37.389Z,50.90
2023-02-24T13:05:11.747Z,50.90
2023-02-24T13:08:02.138Z,51.00
2023-02-24T13:10:38.690Z,51.00
2023-02-24T13:13:15.492Z,51.20
2023-02-24T13:15:51.536Z,51.20
2023-02-24T13:18:26.128Z,51.10
2023-02-24T13:21:05.171Z,51.20
2023-02-24T13:23:35.437Z,51.30
2023-02-24T13:26:04.424Z,51.30
2023-02-24T13:28:36.408Z,51.40
2023-02-24T13:31:07.155Z,51.50
2023-02-24T13:33:38.707Z,51.70
2023-02-24T13:36:20.502Z,51.80
2023-02-24T13:38:51.383Z,52.00
2023-02-24T13:41:35.140Z,52.00
2023-02-24T13:44:20.890Z,52.00
2023-02-24T13:47:04.053Z,52.00
2023-02-24T13:49:37.700Z,51.90
2023-02-24T13:52:16.480Z,51.90
2023-02-24T13:55:01.753Z,52.00
2023-02-24T13:57:47.534Z,52.00
2023-02-24T14:00:27.002Z,52.10
2023-02-24T14:02:55.623Z,52.10
2023-02-24T14:05:27.046Z,52.10
2023-02-24T14:07:56.034Z,52.20
2023-02-24T14:10:27.192Z,52.20
2023-02-24T14:13:04.787Z,52.20
2023-02-24T14:15:34.407Z,52.30
2023-02-24T14:18:05.680Z,52.30
2023-02-24T14:20:35.362Z,52.40
2023-02-24T14:23:03.996Z,52.50
2023-02-24T14:25:39.899Z,52.50
2023-02-24T14:28:08.107Z,52.70
2023-02-24T14:30:39.466Z,52.60
2023-02-24T14:33:18.762Z,52.70
2023-02-24T14:35:47.852Z,52.70
2023-02-24T14:38:29.734Z,52.80
2023-02-24T14:40:59.042Z,52.80
2023-02-24T14:43:27.159Z,52.80
2023-02-24T14:45:57.752Z,52.90
2023-02-24T14:48:28.025Z,53.00
2023-02-24T14:51:02.834Z,52.90
2023-02-24T14:53:33.218Z,53.00
2023-02-24T14:56:06.242Z,53.00
2023-02-24T14:58:41.921Z,53.10
2023-02-24T15:01:19.962Z,53.00
2023-02-24T15:03:52.534Z,53.00
2023-02-24T15:06:24.980Z,53.10
2023-02-24T15:08:59.288Z,53.10
2023-02-24T15:11:31.262Z,53.10
2023-02-24T15:14:01.496Z,53.10
2023-02-24T15:16:37.520Z,53.20
2023-02-24T15:19:05.824Z,53.20
2023-02-24T15:21:39.308Z,53.30
2023-02-24T15:24:20.644Z,53.30
2023-02-24T15:26:55.864Z,53.50
2023-02-24T15:29:26.928Z,53.40
2023-02-24T15:31:56.490Z,53.30
2023-02-24T15:34:27.288Z,53.30
2023-02-24T15:37:00.015Z,53.30
2023-02-24T15:39:31.247Z,53.40
2023-02-24T15:42:10.109Z,53.30
2023-02-24T15:44:38.083Z,53.40
2023-02-24T15:47:21.817Z,53.40
2023-02-24T15:49:49.715Z,54.00
2023-02-24T15:52:21.825Z,53.50
2023-02-24T15:54:49.846Z,53.40
2023-02-24T15:57:20.402Z,53.40
2023-02-24T15:59:49.191Z,53.50
2023-02-24T16:02:19.883Z,53.50
2023-02-24T16:04:48.189Z,53.50
2023-02-24T16:07:19.707Z,53.50
2023-02-24T16:09:50.224Z,53.60
2023-02-24T16:12:23.574Z,53.70
2023-02-24T16:14:55.865Z,53.70
2023-02-24T16:17:32.564Z,53.80
2023-02-24T16:20:00.504Z,53.80
2023-02-24T16:22:29.332Z,53.70
2023-02-24T16:24:57.454Z,53.80
2023-02-24T16:27:29.530Z,53.90
2023-02-24T16:29:57.970Z,53.90
2023-02-24T16:32:28.053Z,54.00
2023-02-24T16:34:56.340Z,53.90
2023-02-24T16:37:27.504Z,53.90
2023-02-24T16:39:55.737Z,54.00
2023-02-24T16:42:23.822Z,53.90
2023-02-24T16:44:53.003Z,53.90
2023-02-24T16:47:24.439Z,54.00
2023-02-24T16:49:55.096Z,54.10
2023-02-24T16:52:25.129Z,54.20
2023-02-24T16:54:53.241Z,54.20
2023-02-24T16:57:25.564Z,54.20
2023-02-24T16:59:55.174Z,54.30
2023-02-24T17:02:26.189Z,54.30
2023-02-24T17:04:54.133Z,54.50
2023-02-24T17:07:22.151Z,54.40
2023-02-24T17:09:50.282Z,54.60
2023-02-24T17:12:22.058Z,54.50
2023-02-24T17:14:50.631Z,54.60
2023-02-24T17:17:20.626Z,54.60
2023-02-24T17:19:48.625Z,54.60
2023-02-24T17:22:17.808Z,54.60
2023-02-24T17:24:45.802Z,54.60
2023-02-24T17:27:14.203Z,54.70
2023-02-24T17:29:42.114Z,54.70
2023-02-24T17:32:10.609Z,54.60
2023-02-24T17:34:39.888Z,54.80
2023-02-24T17:37:07.924Z,54.90
2023-02-24T17:39:36.143Z,55.20
2023-02-24T17:42:04.225Z,55.10
2023-02-24T17:44:32.573Z,55.00
2023-02-24T17:47:00.466Z,55.10
2023-02-24T17:49:28.569Z,55.10
2023-02-24T17:51:58.125Z,55.30
2023-02-24T17:54:26.229Z,55.20
2023-02-24T17:56:54.100Z,55.20
2023-02-24T17:59:22.181Z,55.30
2023-02-24T18:01:50.115Z,55.30
2023-02-24T18:04:18.117Z,55.40
2023-02-24T18:06:46.105Z,55.40
2023-02-24T18:09:15.447Z,55.50
2023-02-24T18:11:45.666Z,55.70
2023-02-24T18:14:13.993Z,55.50
2023-02-24T18:16:42.128Z,55.50
2023-02-24T18:19:10.203Z,55.60
2023-02-24T18:21:38.078Z,55.70
2023-02-24T18:24:07.037Z,55.70
2023-02-24T18:26:36.576Z,55.80
2023-02-24T18:29:05.119Z,55.80
2023-02-24T18:31:35.564Z,55.90
2023-02-24T18:34:03.934Z,56.00
2023-02-24T18:36:32.170Z,56.10
2023-02-24T18:39:01.394Z,56.10
2023-02-24T18:41:29.662Z,56.20
2023-02-24T18:43:59.973Z,56.20
2023-02-24T18:46:28.525Z,56.20
2023-02-24T18:48:57.478Z,56.10
2023-02-24T18:51:27.227Z,56.20
2023-02-24T18:53:56.003Z,56.10
2023-02-24T18:56:26.125Z,56.10
2023-02-24T18:58:57.431Z,56.10
2023-02-24T19:01:28.956Z,56.20
2023-02-24T19:03:58.174Z,56.10
2023-02-24T19:06:28.494Z,56.10
2023-02-24T19:08:58.907Z,56.20
2023-02-24T19:11:27.423Z,56.10
2023-02-24T19:13:56.042Z,56.10
2023-02-24T19:16:24.619Z,56.20
2023-02-24T19:18:56.332Z,56.10
2023-02-24T19:21:25.593Z,56.20
2023-02-24T19:23:53.959Z,56.30
2023-02-24T19:26:25.051Z,56.30
2023-02-24T19:28:53.678Z,56.40
2023-02-24T19:31:23.721Z,56.30
2023-02-24T19:33:54.852Z,56.40
2023-02-24T19:36:23.763Z,56.50
2023-02-24T19:38:52.282Z,56.50
2023-02-24T19:41:20.484Z,56.60
2023-02-24T19:43:48.746Z,56.60
2023-02-24T19:46:17.637Z,56.60
2023-02-24T19:48:46.719Z,56.70
2023-02-24T19:51:18.402Z,56.70
2023-02-24T19:53:46.731Z,56.60
2023-02-24T19:56:15.164Z,56.50
2023-02-24T19:58:43.230Z,56.40
2023-02-24T20:01:13.904Z,56.40
2023-02-24T20:03:43.735Z,56.20
2023-02-24T20:06:20.101Z,56.20
2023-02-24T20:08:48.956Z,56.20
2023-02-24T20:11:18.153Z,56.00
2023-02-24T20:13:46.869Z,55.90
2023-02-24T20:16:16.618Z,55.80
2023-02-24T20:18:45.391Z,55.90
2023-02-24T20:21:14.523Z,55.80
2023-02-24T20:23:44.038Z,55.70
2023-02-24T20:26:16.247Z,55.70
2023-02-24T20:28:45.158Z,55.70
2023-02-24T20:31:16.950Z,55.70
2023-02-24T20:33:45.191Z,55.60
2023-02-24T20:36:15.021Z,55.60
2023-02-24T20:38:44.644Z,55.70
2023-02-24T20:41:15.551Z,55.70
2023-02-24T20:43:43.604Z,55.70
2023-02-24T20:46:13.950Z,55.80
2023-02-24T20:48:42.367Z,55.70
2023-02-24T20:51:12.233Z,55.70
2023-02-24T20:53:55.933Z,55.70
2023-02-24T20:56:27.723Z,55.70
2023-02-24T20:59:01.029Z,56.20
2023-02-24T21:01:30.692Z,55.50
2023-02-24T21:03:59.080Z,55.50
2023-02-24T21:06:28.303Z,55.50
2023-02-24T21:08:56.412Z,55.50
2023-02-24T21:11:25.843Z,55.50
2023-02-24T21:13:54.339Z,55.50
2023-02-24T21:16:23.102Z,55.50
2023-02-24T21:18:53.214Z,55.50
2023-02-24T21:21:21.791Z,55.50
2023-02-24T21:23:50.450Z,55.40
2023-02-24T21:26:19.465Z,55.40
2023-02-24T21:28:49.630Z,55.40
2023-02-24T21:31:21.523Z,55.50
2023-02-24T21:33:52.739Z,55.50
2023-02-24T21:36:24.429Z,55.50
2023-02-24T21:38:53.753Z,55.50
2023-02-24T21:41:22.238Z,55.60
2023-02-24T21:43:55.818Z,55.60
2023-02-24T21:46:27.943Z,55.50
2023-02-24T21:48:57.738Z,55.50
2023-02-24T21:51:27.377Z,55.40
2023-02-24T21:53:56.054Z,55.50
2023-02-24T21:56:25.818Z,55.40
2023-02-24T21:58:59.506Z,55.50
2023-02-24T22:01:29.876Z,55.50
2023-02-24T22:03:59.742Z,55.50
2023-02-24T22:06:31.468Z,55.50
2023-02-24T22:08:59.945Z,55.50
2023-02-24T22:11:28.037Z,55.60
2023-02-24T22:13:57.395Z,55.60
2023-02-24T22:16:27.171Z,55.60
2023-02-24T22:18:56.389Z,55.60
2023-02-24T22:21:26.227Z,55.70
2023-02-24T22:23:56.925Z,55.70
2023-02-24T22:26:25.543Z,55.70
2023-02-24T22:28:54.918Z,55.70
2023-02-24T22:31:26.016Z,55.60
2023-02-24T22:33:54.207Z,55.60
2023-02-24T22:36:25.405Z,55.60
2023-02-24T22:38:55.007Z,55.60
2023-02-24T22:41:25.086Z,55.50
2023-02-24T22:43:53.789Z,55.40
2023-02-24T22:46:26.311Z,55.30
2023-02-24T22:48:55.748Z,55.30
2023-02-24T22:51:24.494Z,55.30
2023-02-24T22:53:52.968Z,55.40
2023-02-24T22:56:24.198Z,55.40
2023-02-24T22:58:52.561Z,55.30
2023-02-24T23:01:22.444Z,55.40
2023-02-24T23:03:52.342Z,55.40
2023-02-24T23:06:23.345Z,55.30
2023-02-24T23:08:53.370Z,55.30
2023-02-24T23:11:24.617Z,55.30
2023-02-24T23:13:53.230Z,55.30
2023-02-24T23:16:24.445Z,55.20
2023-02-24T23:18:56.397Z,55.20
2023-02-24T23:21:26.740Z,55.20
2023-02-24T23:23:57.164Z,55.20
2023-02-24T23:26:29.640Z,55.20
2023-02-24T23:28:57.941Z,55.10
2023-02-24T23:31:26.191Z,55.60
2023-02-24T23:33:55.894Z,55.20
2023-02-24T23:36:24.401Z,55.20
2023-02-24T23:38:53.029Z,55.20
2023-02-24T23:41:21.350Z,55.20
2023-02-24T23:43:49.339Z,55.20
2023-02-24T23:46:17.281Z,55.10
2023-02-24T23:48:45.759Z,55.10
2023-02-24T23:51:16.173Z,55.10
2023-02-24T23:53:45.958Z,55.10
2023-02-24T23:56:17.601Z,55.10
2023-02-24T23:58:46.704Z,55.10
